Time;durP1;ratioP1;P1;durP2;ratioP2;P2;SDS_P1;SDS_P2;PMS_P1;PMS_P2;Temp;Humidity;BMP_temperature;BMP_pressure;BME280_temperature;BME280_humidity;BME280_pressure;Samples;Min_cycle;Max_cycle;Signal;HPM_P1;HPM_P2
2022/04/08 00:00:58;;;;;;;311.23;72.18;;;;;;;;;;5101800;28;20199;-91
2022/04/08 00:03:24;;;;;;;306.02;71.00;;;;;;;;;;5102707;28;20222;-91
2022/04/08 00:05:52;;;;;;;303.10;67.60;;;;;;;;;;5102422;28;20220;-91
2022/04/08 00:08:18;;;;;;;317.08;73.22;;;;;;;;;;5101841;28;20219;-91
2022/04/08 00:10:44;;;;;;;304.85;70.07;;;;;;;;;;5102153;28;20199;-91
2022/04/08 00:13:11;;;;;;;305.63;70.28;;;;;;;;;;5101359;28;20194;-92
2022/04/08 00:15:38;;;;;;;310.85;72.97;;;;;;;;;;5090535;28;20200;-91
2022/04/08 00:18:06;;;;;;;309.33;71.35;;;;;;;;;;5094076;28;20483;-91
2022/04/08 00:20:33;;;;;;;303.75;70.15;;;;;;;;;;5103550;28;20270;-92
2022/04/08 00:22:59;;;;;;;303.63;69.90;;;;;;;;;;5103275;28;20286;-91
2022/04/08 00:25:26;;;;;;;302.05;69.40;;;;;;;;;;5103484;28;20245;-91
2022/04/08 00:27:52;;;;;;;305.77;68.93;;;;;;;;;;5103490;28;20222;-92
2022/04/08 00:30:19;;;;;;;315.90;72.20;;;;;;;;;;5099033;28;20680;-91
2022/04/08 00:32:45;;;;;;;307.00;68.55;;;;;;;;;;5090793;28;20243;-92
2022/04/08 00:35:13;;;;;;;307.65;69.20;;;;;;;;;;5103276;28;20223;-92
2022/04/08 00:37:40;;;;;;;302.52;68.13;;;;;;;;;;5101997;28;20255;-91
2022/04/08 00:40:07;;;;;;;312.38;70.80;;;;;;;;;;5102387;28;20334;-92
2022/04/08 00:42:34;;;;;;;324.23;73.13;;;;;;;;;;5102481;28;20229;-91
2022/04/08 00:45:00;;;;;;;313.05;71.18;;;;;;;;;;5102465;28;20224;-92
2022/04/08 00:47:27;;;;;;;312.55;70.97;;;;;;;;;;5085506;28;20271;-91
2022/04/08 00:49:54;;;;;;;318.52;72.60;;;;;;;;;;5101088;28;20205;-92
2022/04/08 00:52:23;;;;;;;311.80;71.57;;;;;;;;;;5101585;28;20203;-91
2022/04/08 00:54:50;;;;;;;315.40;71.43;;;;;;;;;;5102135;28;20225;-92
2022/04/08 00:57:16;;;;;;;320.27;73.28;;;;;;;;;;5101424;28;20296;-91
2022/04/08 00:59:43;;;;;;;313.27;72.20;;;;;;;;;;5101087;28;20199;-92
2022/04/08 01:02:09;;;;;;;310.08;69.90;;;;;;;;;;5100721;28;20205;-91
2022/04/08 01:04:36;;;;;;;310.95;69.85;;;;;;;;;;5101957;28;20228;-91
2022/04/08 01:07:02;;;;;;;316.48;74.20;;;;;;;;;;5101887;28;20304;-92
2022/04/08 01:09:30;;;;;;;310.63;70.00;;;;;;;;;;5102003;28;20194;-91
2022/04/08 01:11:57;;;;;;;319.58;72.30;;;;;;;;;;5102081;28;20198;-92
2022/04/08 01:14:23;;;;;;;313.55;70.85;;;;;;;;;;5102164;28;20194;-92
2022/04/08 01:16:50;;;;;;;310.92;70.10;;;;;;;;;;5101863;28;20202;-92
2022/04/08 01:19:16;;;;;;;309.15;68.25;;;;;;;;;;5090737;28;20203;-92
2022/04/08 01:21:43;;;;;;;316.08;69.32;;;;;;;;;;5081959;28;20195;-92
2022/04/08 01:24:10;;;;;;;311.05;68.68;;;;;;;;;;5099067;28;20194;-91
2022/04/08 01:26:38;;;;;;;317.15;72.53;;;;;;;;;;5102429;28;20230;-92
2022/04/08 01:29:04;;;;;;;309.05;69.47;;;;;;;;;;5102160;28;20230;-92
2022/04/08 01:31:31;;;;;;;312.45;68.85;;;;;;;;;;5102680;28;20256;-92
2022/04/08 01:33:57;;;;;;;304.67;68.97;;;;;;;;;;5100165;28;20230;-92
2022/04/08 01:36:24;;;;;;;302.17;69.43;;;;;;;;;;5081856;28;20204;-92
2022/04/08 01:38:50;;;;;;;310.38;70.20;;;;;;;;;;5093997;28;20225;-91
2022/04/08 01:41:16;;;;;;;317.17;69.60;;;;;;;;;;5101398;28;20203;-91
2022/04/08 01:43:44;;;;;;;318.88;69.47;;;;;;;;;;5098281;28;20215;-91
2022/04/08 01:46:11;;;;;;;314.83;70.90;;;;;;;;;;5081235;28;20689;-92
2022/04/08 01:48:37;;;;;;;333.38;74.35;;;;;;;;;;5092808;28;20218;-92
2022/04/08 01:51:04;;;;;;;317.45;72.18;;;;;;;;;;5105855;28;20259;-91
2022/04/08 01:53:30;;;;;;;338.75;70.68;;;;;;;;;;5095812;28;20195;-92
2022/04/08 01:55:57;;;;;;;308.38;68.55;;;;;;;;;;5106320;28;20202;-91
2022/04/08 01:58:23;;;;;;;318.85;71.85;;;;;;;;;;5105741;28;20199;-91
2022/04/08 02:00:52;;;;;;;321.83;71.95;;;;;;;;;;5104276;28;20237;-91
2022/04/08 02:03:20;;;;;;;322.38;71.95;;;;;;;;;;5105010;28;20210;-92
2022/04/08 02:05:46;;;;;;;323.50;73.78;;;;;;;;;;5104753;28;20195;-91
2022/04/08 02:08:13;;;;;;;321.00;72.10;;;;;;;;;;5103829;28;20223;-91
2022/04/08 02:10:39;;;;;;;308.23;69.95;;;;;;;;;;5095301;28;20228;-91
2022/04/08 02:13:06;;;;;;;313.92;70.82;;;;;;;;;;5105737;28;20191;-91
2022/04/08 02:15:33;;;;;;;310.40;70.07;;;;;;;;;;5105727;28;20202;-91
2022/04/08 02:18:02;;;;;;;328.58;74.15;;;;;;;;;;5105519;28;20207;-91
2022/04/08 02:20:30;;;;;;;330.10;71.78;;;;;;;;;;5105515;28;20198;-92
2022/04/08 02:22:56;;;;;;;316.33;70.68;;;;;;;;;;5105949;28;20194;-91
2022/04/08 02:25:23;;;;;;;336.70;73.13;;;;;;;;;;5103871;28;20207;-91
2022/04/08 02:27:49;;;;;;;316.75;70.38;;;;;;;;;;5086613;28;20224;-91
2022/04/08 02:30:16;;;;;;;387.08;73.10;;;;;;;;;;5105201;28;20268;-92
2022/04/08 02:32:43;;;;;;;353.17;74.32;;;;;;;;;;5104499;28;20688;-92
2022/04/08 02:35:11;;;;;;;350.63;75.78;;;;;;;;;;5104256;28;20307;-92
2022/04/08 02:37:37;;;;;;;327.25;73.20;;;;;;;;;;5105366;28;20661;-92
2022/04/08 02:40:04;;;;;;;366.85;73.68;;;;;;;;;;5104580;28;20208;-92
2022/04/08 02:42:31;;;;;;;350.50;73.32;;;;;;;;;;5104311;28;20228;-92
2022/04/08 02:44:57;;;;;;;324.83;72.07;;;;;;;;;;5102337;28;20203;-92
2022/04/08 02:47:24;;;;;;;315.10;72.03;;;;;;;;;;5104445;28;20289;-91
2022/04/08 02:49:50;;;;;;;318.42;70.93;;;;;;;;;;5104246;28;20226;-91
2022/04/08 02:52:18;;;;;;;317.90;70.80;;;;;;;;;;5103634;28;20229;-92
2022/04/08 02:54:45;;;;;;;321.50;73.00;;;;;;;;;;5103166;28;20244;-90
2022/04/08 02:57:11;;;;;;;315.02;72.90;;;;;;;;;;5103986;28;20248;-91
2022/04/08 02:59:38;;;;;;;310.25;69.00;;;;;;;;;;5093708;28;20256;-91
2022/04/08 03:02:05;;;;;;;333.48;69.70;;;;;;;;;;5084157;28;20252;-92
2022/04/08 03:04:31;;;;;;;319.60;70.95;;;;;;;;;;5098486;28;20661;-91
2022/04/08 03:06:58;;;;;;;313.48;73.60;;;;;;;;;;5103591;28;20951;-91
2022/04/08 03:09:26;;;;;;;319.80;74.50;;;;;;;;;;5102114;28;20233;-90
2022/04/08 03:11:52;;;;;;;321.00;70.13;;;;;;;;;;5103552;28;20256;-91
2022/04/08 03:14:19;;;;;;;323.95;71.55;;;;;;;;;;5103132;28;20240;-91
2022/04/08 03:16:45;;;;;;;313.50;71.32;;;;;;;;;;5083671;28;20261;-91
2022/04/08 03:19:12;;;;;;;317.08;71.05;;;;;;;;;;5093604;28;20195;-91
2022/04/08 03:21:38;;;;;;;320.02;71.57;;;;;;;;;;5103562;28;20202;-91
2022/04/08 03:24:05;;;;;;;348.52;76.93;;;;;;;;;;5103613;28;20252;-91
2022/04/08 03:26:33;;;;;;;368.45;72.13;;;;;;;;;;5103778;28;20554;-90
2022/04/08 03:29:00;;;;;;;329.50;70.88;;;;;;;;;;5104513;28;20223;-90
2022/04/08 03:31:26;;;;;;;339.65;69.45;;;;;;;;;;5103996;28;20199;-90
2022/04/08 03:33:53;;;;;;;325.40;70.13;;;;;;;;;;5090711;28;20824;-90
2022/04/08 03:36:19;;;;;;;345.05;72.53;;;;;;;;;;5104074;28;20199;-91
2022/04/08 03:38:46;;;;;;;323.88;72.10;;;;;;;;;;5103991;28;20198;-90
2022/04/08 03:41:12;;;;;;;329.38;72.20;;;;;;;;;;5104171;28;20195;-91
2022/04/08 03:43:40;;;;;;;310.73;69.88;;;;;;;;;;5104066;28;20195;-90
2022/04/08 03:46:07;;;;;;;329.35;74.18;;;;;;;;;;5104289;28;20203;-91
2022/04/08 03:48:33;;;;;;;316.88;70.72;;;;;;;;;;5092700;28;20222;-91
2022/04/08 03:50:59;;;;;;;329.95;73.03;;;;;;;;;;5103743;28;20203;-91
2022/04/08 03:53:26;;;;;;;324.48;72.00;;;;;;;;;;5101972;28;20198;-91
2022/04/08 03:55:52;;;;;;;327.27;73.20;;;;;;;;;;5102712;28;20222;-90
2022/04/08 03:58:19;;;;;;;322.73;69.82;;;;;;;;;;5104013;28;20203;-91
2022/04/08 04:00:47;;;;;;;338.08;75.15;;;;;;;;;;5103447;28;20194;-90
2022/04/08 04:03:14;;;;;;;313.25;68.70;;;;;;;;;;5104418;28;20198;-91
2022/04/08 04:05:40;;;;;;;315.67;69.70;;;;;;;;;;5102705;28;20207;-91
2022/04/08 04:08:09;;;;;;;312.65;70.65;;;;;;;;;;5101789;28;20202;-90
2022/04/08 04:10:36;;;;;;;308.27;68.35;;;;;;;;;;5101381;28;20225;-90
2022/04/08 04:13:02;;;;;;;316.23;70.07;;;;;;;;;;5103704;28;20230;-91
2022/04/08 04:15:28;;;;;;;336.75;71.75;;;;;;;;;;5103623;28;20221;-92
2022/04/08 04:17:56;;;;;;;309.40;70.15;;;;;;;;;;5103002;28;20206;-91
2022/04/08 04:20:23;;;;;;;318.92;70.78;;;;;;;;;;5100081;28;20198;-92
2022/04/08 04:22:50;;;;;;;308.92;69.70;;;;;;;;;;5083036;28;20217;-91
2022/04/08 04:25:17;;;;;;;310.38;68.80;;;;;;;;;;5098161;28;20197;-91
2022/04/08 04:27:43;;;;;;;341.58;70.20;;;;;;;;;;5103692;28;20287;-92
2022/04/08 04:30:10;;;;;;;334.77;70.45;;;;;;;;;;5103412;28;20280;-92
2022/04/08 04:32:37;;;;;;;323.38;74.00;;;;;;;;;;5101873;28;20206;-92
2022/04/08 04:35:07;;;;;;;322.88;70.25;;;;;;;;;;5100067;28;20291;-92
2022/04/08 04:37:34;;;;;;;328.02;74.43;;;;;;;;;;5080676;28;20207;-92
2022/04/08 04:40:01;;;;;;;330.60;71.00;;;;;;;;;;5093637;28;20218;-92
2022/04/08 04:42:28;;;;;;;330.80;70.70;;;;;;;;;;5101805;28;20264;-91
2022/04/08 04:44:54;;;;;;;318.42;73.72;;;;;;;;;;5102300;28;20281;-91
2022/04/08 04:47:21;;;;;;;308.83;71.03;;;;;;;;;;5102763;28;20195;-91
2022/04/08 04:49:47;;;;;;;311.42;67.63;;;;;;;;;;5102989;28;21058;-91
2022/04/08 04:52:15;;;;;;;303.48;71.20;;;;;;;;;;5102669;28;20267;-91
2022/04/08 04:54:42;;;;;;;337.13;69.50;;;;;;;;;;5091187;28;20199;-92
2022/04/08 04:57:09;;;;;;;322.30;71.68;;;;;;;;;;5102594;28;20221;-92
2022/04/08 04:59:35;;;;;;;331.40;72.07;;;;;;;;;;5102996;28;20195;-91
2022/04/08 05:02:02;;;;;;;336.75;71.53;;;;;;;;;;5102263;28;20195;-91
2022/04/08 05:04:30;;;;;;;305.10;71.53;;;;;;;;;;5102024;28;20191;-90
2022/04/08 05:06:56;;;;;;;320.90;72.63;;;;;;;;;;5102012;28;20270;-90
2022/04/08 05:09:24;;;;;;;335.65;74.93;;;;;;;;;;5101051;28;20813;-91
2022/04/08 05:11:50;;;;;;;328.52;72.03;;;;;;;;;;5102182;28;20194;-91
2022/04/08 05:14:17;;;;;;;331.73;70.50;;;;;;;;;;5102738;28;20191;-91
2022/04/08 05:16:43;;;;;;;316.85;76.13;;;;;;;;;;5102292;28;20217;-91
2022/04/08 05:19:11;;;;;;;305.27;74.10;;;;;;;;;;5099075;28;20721;-90
2022/04/08 05:21:37;;;;;;;323.80;73.93;;;;;;;;;;5096891;28;20202;-90
2022/04/08 05:24:04;;;;;;;333.25;77.10;;;;;;;;;;5101986;28;20216;-91
2022/04/08 05:26:32;;;;;;;319.27;74.57;;;;;;;;;;5097858;28;20199;-90
2022/04/08 05:28:58;;;;;;;319.83;73.07;;;;;;;;;;5103468;28;20226;-91
2022/04/08 05:31:25;;;;;;;307.50;69.53;;;;;;;;;;5104250;28;20202;-90
2022/04/08 05:33:51;;;;;;;316.50;70.55;;;;;;;;;;5105778;28;20234;-91
2022/04/08 05:36:18;;;;;;;311.90;70.68;;;;;;;;;;5105651;28;20667;-91
2022/04/08 05:38:45;;;;;;;311.73;71.57;;;;;;;;;;5105465;28;20203;-91
2022/04/08 05:41:11;;;;;;;309.02;73.90;;;;;;;;;;5093327;28;20229;-91
2022/04/08 05:43:44;;;;;;;322.05;75.80;;;;;;;;;;5084456;28;20253;-91
2022/04/08 05:46:10;;;;;;;320.58;74.68;;;;;;;;;;5099731;28;20238;-92
2022/04/08 05:48:37;;;;;;;319.00;74.97;;;;;;;;;;5084513;28;20203;-92
2022/04/08 05:51:03;;;;;;;342.23;77.20;;;;;;;;;;5101505;28;20199;-92
2022/04/08 05:53:30;;;;;;;313.40;73.20;;;;;;;;;;5105061;28;20198;-91
2022/04/08 05:55:56;;;;;;;319.15;76.22;;;;;;;;;;5104434;28;20209;-90
2022/04/08 05:58:23;;;;;;;317.90;76.53;;;;;;;;;;5098668;28;20187;-91
2022/04/08 06:00:51;;;;;;;323.85;79.55;;;;;;;;;;5097614;28;20198;-91
2022/04/08 06:03:17;;;;;;;315.13;76.05;;;;;;;;;;5105076;28;20566;-91
2022/04/08 06:05:44;;;;;;;316.98;77.90;;;;;;;;;;5105597;28;20248;-91
2022/04/08 06:08:10;;;;;;;312.52;74.38;;;;;;;;;;5105071;28;20195;-89
2022/04/08 06:10:37;;;;;;;324.02;77.38;;;;;;;;;;5104240;28;20260;-90
2022/04/08 06:13:03;;;;;;;326.45;80.07;;;;;;;;;;5103241;28;20308;-91
2022/04/08 06:15:31;;;;;;;307.80;74.07;;;;;;;;;;5095660;28;20203;-92
2022/04/08 06:17:59;;;;;;;318.85;76.35;;;;;;;;;;5084094;28;20249;-91
2022/04/08 06:20:26;;;;;;;313.02;73.18;;;;;;;;;;5092895;28;20261;-92
2022/04/08 06:22:53;;;;;;;318.95;78.53;;;;;;;;;;5102650;28;20202;-92
2022/04/08 06:25:20;;;;;;;329.80;80.03;;;;;;;;;;5096980;28;20199;-91
2022/04/08 06:27:55;;;;;;;326.85;77.05;;;;;;;;;;5101824;28;20222;-92
2022/04/08 06:30:22;;;;;;;331.17;82.20;;;;;;;;;;5083874;28;20290;-93
2022/04/08 06:32:48;;;;;;;326.80;78.50;;;;;;;;;;5083200;28;20195;-92
2022/04/08 06:35:16;;;;;;;329.05;76.85;;;;;;;;;;5095868;28;20252;-92
2022/04/08 06:37:42;;;;;;;328.55;80.32;;;;;;;;;;5103697;28;20749;-92
2022/04/08 06:40:10;;;;;;;320.77;79.40;;;;;;;;;;5103979;28;20239;-91
2022/04/08 06:42:38;;;;;;;315.98;78.40;;;;;;;;;;5102780;28;20220;-91
2022/04/08 06:45:05;;;;;;;319.88;75.60;;;;;;;;;;5103244;28;20223;-92
2022/04/08 06:47:31;;;;;;;316.63;75.63;;;;;;;;;;5100577;28;20203;-91
2022/04/08 06:49:58;;;;;;;331.35;85.53;;;;;;;;;;5099251;28;20219;-91
2022/04/08 06:52:26;;;;;;;339.00;84.15;;;;;;;;;;5095304;28;20608;-92
2022/04/08 06:54:52;;;;;;;325.83;86.82;;;;;;;;;;5094465;28;20591;-91
2022/04/08 06:57:19;;;;;;;333.38;86.20;;;;;;;;;;5096418;28;20275;-91
2022/04/08 06:59:45;;;;;;;329.65;85.57;;;;;;;;;;5093627;28;20199;-91
2022/04/08 07:02:13;;;;;;;327.20;86.22;;;;;;;;;;5092417;28;20198;-93
2022/04/08 07:04:40;;;;;;;319.58;86.55;;;;;;;;;;5076405;28;20192;-91
2022/04/08 07:07:06;;;;;;;331.52;88.63;;;;;;;;;;5093783;28;20268;-92
2022/04/08 07:09:34;;;;;;;321.65;83.03;;;;;;;;;;5096787;28;20222;-91
2022/04/08 07:12:01;;;;;;;317.30;82.78;;;;;;;;;;5098162;28;20207;-92
2022/04/08 07:14:28;;;;;;;310.83;80.90;;;;;;;;;;5100525;28;20247;-91
2022/04/08 07:16:55;;;;;;;318.30;79.68;;;;;;;;;;5099724;28;20199;-91
2022/04/08 07:19:21;;;;;;;321.35;82.55;;;;;;;;;;5102202;28;20202;-90
2022/04/08 07:21:48;;;;;;;313.80;79.78;;;;;;;;;;5091396;28;20308;-91
2022/04/08 07:24:14;;;;;;;325.20;81.68;;;;;;;;;;5080383;28;20259;-92
2022/04/08 07:26:42;;;;;;;316.73;80.18;;;;;;;;;;5098066;28;20264;-92
2022/04/08 07:29:09;;;;;;;315.00;78.20;;;;;;;;;;5103752;28;20210;-92
2022/04/08 07:31:36;;;;;;;321.75;82.50;;;;;;;;;;5103225;28;20191;-91
2022/04/08 07:34:02;;;;;;;324.58;82.13;;;;;;;;;;5090510;28;20284;-92
2022/04/08 07:36:28;;;;;;;335.25;88.90;;;;;;;;;;5095965;28;20203;-92
2022/04/08 07:38:55;;;;;;;332.48;89.53;;;;;;;;;;5101029;28;20199;-93
2022/04/08 07:41:21;;;;;;;335.47;87.53;;;;;;;;;;5097966;28;20233;-93
2022/04/08 07:43:50;;;;;;;330.87;86.87;;;;;;;;;;5102870;28;20488;-92
2022/04/08 07:46:16;;;;;;;326.60;86.10;;;;;;;;;;5100373;28;20451;-92
2022/04/08 07:48:43;;;;;;;326.10;86.60;;;;;;;;;;5103063;28;20470;-92
2022/04/08 07:51:10;;;;;;;323.47;85.33;;;;;;;;;;5102808;28;20492;-94
2022/04/08 07:53:37;;;;;;;334.60;94.57;;;;;;;;;;5097750;28;20452;-93
2022/04/08 07:56:03;;;;;;;320.40;87.97;;;;;;;;;;5096537;28;20451;-92
2022/04/08 07:58:30;;;;;;;330.37;90.67;;;;;;;;;;5100609;28;20445;-93
2022/04/08 08:00:57;;;;;;;337.07;96.53;;;;;;;;;;5091678;28;20461;-90
2022/04/08 08:03:24;;;;;;;332.70;88.70;;;;;;;;;;5082215;28;20462;-90
2022/04/08 08:05:52;;;;;;;327.93;93.33;;;;;;;;;;5088775;28;20444;-91
2022/04/08 08:08:19;;;;;;;333.93;92.13;;;;;;;;;;5091291;28;20450;-91
2022/04/08 08:10:45;;;;;;;339.17;93.60;;;;;;;;;;5088032;28;20492;-93
2022/04/08 08:13:11;;;;;;;343.60;100.33;;;;;;;;;;5095402;28;20499;-92
2022/04/08 08:15:40;;;;;;;341.00;101.90;;;;;;;;;;5082578;28;20493;-92
2022/04/08 08:18:08;;;;;;;344.47;101.60;;;;;;;;;;5098105;28;20475;-92
2022/04/08 08:20:34;;;;;;;346.67;102.20;;;;;;;;;;5093242;28;20441;-92
2022/04/08 08:23:01;;;;;;;337.67;98.60;;;;;;;;;;5099694;28;20460;-92
2022/04/08 08:25:28;;;;;;;338.27;102.60;;;;;;;;;;5099407;28;20461;-91
2022/04/08 08:27:55;;;;;;;351.70;103.00;;;;;;;;;;5098385;28;20506;-92
2022/04/08 08:30:21;;;;;;;347.07;106.40;;;;;;;;;;5098710;28;20518;-93
2022/04/08 08:32:49;;;;;;;342.53;105.47;;;;;;;;;;5100239;28;20502;-92
2022/04/08 08:35:18;;;;;;;345.00;105.73;;;;;;;;;;5102983;28;20472;-92
2022/04/08 08:37:45;;;;;;;350.93;108.27;;;;;;;;;;5098590;28;20459;-92
2022/04/08 08:40:13;;;;;;;352.73;107.70;;;;;;;;;;5104449;28;20450;-92
2022/04/08 08:42:40;;;;;;;372.90;124.00;;;;;;;;;;5101981;28;20474;-90
2022/04/08 08:45:08;;;;;;;363.70;120.90;;;;;;;;;;5101091;28;20471;-91
2022/04/08 08:47:34;;;;;;;352.57;111.23;;;;;;;;;;5102777;28;20452;-91
2022/04/08 08:50:01;;;;;;;372.73;119.13;;;;;;;;;;5101359;28;20483;-92
2022/04/08 08:52:29;;;;;;;369.90;118.00;;;;;;;;;;5101058;28;20436;-93
2022/04/08 08:54:56;;;;;;;373.50;118.37;;;;;;;;;;5098167;28;20444;-92
2022/04/08 08:57:23;;;;;;;363.33;114.60;;;;;;;;;;5088724;28;20450;-91
2022/04/08 08:59:51;;;;;;;362.87;115.70;;;;;;;;;;5085167;28;20448;-92
2022/04/08 09:02:18;;;;;;;370.27;116.73;;;;;;;;;;5096650;28;21055;-91
2022/04/08 09:04:45;;;;;;;374.10;120.87;;;;;;;;;;5093952;28;20472;-91
2022/04/08 09:07:22;;;;;;;375.77;123.60;;;;;;;;;;5094178;28;20432;-92
2022/04/08 09:09:52;;;;;;;370.13;118.83;;;;;;;;;;5094794;28;20472;-92
2022/04/08 09:12:18;;;;;;;367.80;120.10;;;;;;;;;;5094991;28;20539;-92
2022/04/08 09:14:48;;;;;;;371.73;122.97;;;;;;;;;;5093659;28;20532;-93
2022/04/08 09:17:16;;;;;;;367.77;114.90;;;;;;;;;;5094581;28;20506;-95
2022/04/08 09:19:46;;;;;;;368.17;117.97;;;;;;;;;;5096632;28;20449;-93
2022/04/08 09:22:13;;;;;;;361.50;115.77;;;;;;;;;;5094393;28;20466;-94
2022/04/08 09:24:40;;;;;;;368.30;121.00;;;;;;;;;;5093940;28;20450;-93
2022/04/08 09:27:08;;;;;;;375.23;128.27;;;;;;;;;;5096319;28;20531;-94
2022/04/08 09:29:35;;;;;;;382.80;133.87;;;;;;;;;;5097571;28;20474;-92
2022/04/08 09:32:08;;;;;;;366.60;122.40;;;;;;;;;;5093846;28;20445;-92
2022/04/08 09:34:34;;;;;;;363.47;122.47;;;;;;;;;;5101467;28;20482;-93
2022/04/08 09:37:06;;;;;;;369.77;126.33;;;;;;;;;;5099542;28;20451;-94
2022/04/08 09:39:32;;;;;;;369.97;125.10;;;;;;;;;;5085514;28;20496;-92
2022/04/08 09:42:03;;;;;;;368.23;125.17;;;;;;;;;;5095346;28;21162;-93
2022/04/08 09:44:35;;;;;;;368.97;132.57;;;;;;;;;;5096470;28;20479;-93
2022/04/08 09:47:01;;;;;;;358.80;120.73;;;;;;;;;;5091958;28;20531;-94
2022/04/08 09:49:28;;;;;;;371.67;137.37;;;;;;;;;;5100177;28;20520;-92
2022/04/08 09:51:56;;;;;;;373.27;135.37;;;;;;;;;;5100074;28;20537;-90
2022/04/08 09:54:24;;;;;;;369.33;131.83;;;;;;;;;;5098249;28;20463;-93
2022/04/08 09:56:52;;;;;;;369.27;133.07;;;;;;;;;;5092254;28;20513;-94
2022/04/08 09:59:21;;;;;;;372.03;134.93;;;;;;;;;;5094738;28;20481;-93
2022/04/08 10:01:51;;;;;;;365.77;125.83;;;;;;;;;;5095421;28;20453;-92
2022/04/08 10:04:20;;;;;;;364.53;130.83;;;;;;;;;;5097396;28;20436;-91
2022/04/08 10:06:47;;;;;;;366.07;131.57;;;;;;;;;;5099029;28;20444;-92
2022/04/08 10:09:15;;;;;;;379.00;139.43;;;;;;;;;;5101071;28;20516;-92
2022/04/08 10:11:45;;;;;;;376.87;138.20;;;;;;;;;;5103741;28;20488;-93
2022/04/08 10:14:18;;;;;;;380.10;141.87;;;;;;;;;;5105400;28;21209;-91
2022/04/08 10:16:51;;;;;;;376.93;136.80;;;;;;;;;;5105365;28;20440;-91
2022/04/08 10:19:20;;;;;;;377.67;140.67;;;;;;;;;;5103437;28;20513;-93
2022/04/08 10:21:51;;;;;;;372.33;135.97;;;;;;;;;;5103907;28;20525;-96
2022/04/08 10:24:22;;;;;;;361.57;128.20;;;;;;;;;;5105921;28;20461;-93
2022/04/08 10:26:59;;;;;;;371.60;136.50;;;;;;;;;;5104229;28;20457;-93
2022/04/08 10:29:25;;;;;;;361.17;127.50;;;;;;;;;;5100658;28;21335;-92
2022/04/08 10:31:55;;;;;;;359.77;125.40;;;;;;;;;;5105113;28;20537;-92
2022/04/08 10:34:24;;;;;;;370.97;141.33;;;;;;;;;;5104278;28;20502;-92
2022/04/08 10:36:52;;;;;;;369.60;141.73;;;;;;;;;;5087747;28;20478;-93
2022/04/08 10:39:19;;;;;;;362.40;136.13;;;;;;;;;;5085376;28;20465;-93
2022/04/08 10:41:46;;;;;;;366.93;137.03;;;;;;;;;;5099882;28;20502;-92
2022/04/08 10:44:13;;;;;;;372.93;137.43;;;;;;;;;;5105819;28;20448;-90
2022/04/08 10:46:48;;;;;;;370.87;132.93;;;;;;;;;;5104108;28;20463;-92
2022/04/08 10:49:15;;;;;;;369.80;136.10;;;;;;;;;;5109567;28;20467;-92
2022/04/08 10:51:46;;;;;;;362.87;128.37;;;;;;;;;;5090827;28;21024;-92
2022/04/08 10:54:12;;;;;;;374.77;138.50;;;;;;;;;;5101716;28;20452;-93
2022/04/08 10:56:39;;;;;;;379.67;146.93;;;;;;;;;;5099017;28;20538;-93
2022/04/08 10:59:06;;;;;;;380.87;148.13;;;;;;;;;;5101527;28;20467;-91
2022/04/08 11:01:35;;;;;;;382.43;152.50;;;;;;;;;;5096800;28;23218;-94
2022/04/08 11:04:03;;;;;;;375.37;143.07;;;;;;;;;;5090040;28;20450;-94
2022/04/08 11:06:30;;;;;;;377.10;146.17;;;;;;;;;;5088766;28;20861;-95
2022/04/08 11:09:03;;;;;;;373.33;142.00;;;;;;;;;;5082268;28;20457;-94
2022/04/08 11:11:30;;;;;;;375.63;144.63;;;;;;;;;;5099749;28;20561;-96
2022/04/08 11:14:03;;;;;;;375.00;148.63;;;;;;;;;;5104309;28;20437;-96
2022/04/08 11:16:33;;;;;;;371.47;142.70;;;;;;;;;;5107735;28;20448;-96
2022/04/08 11:19:01;;;;;;;379.10;146.03;;;;;;;;;;5112320;28;20449;-96
2022/04/08 11:21:29;;;;;;;378.60;146.70;;;;;;;;;;5108445;28;20437;-95
2022/04/08 11:24:03;;;;;;;380.97;149.53;;;;;;;;;;5105944;28;20860;-95
2022/04/08 11:26:30;;;;;;;379.23;149.80;;;;;;;;;;5107329;28;20445;-96
2022/04/08 11:28:57;;;;;;;378.67;148.37;;;;;;;;;;5108518;28;20480;-95
2022/04/08 11:31:24;;;;;;;386.67;151.77;;;;;;;;;;5105613;28;20502;-95
2022/04/08 11:33:50;;;;;;;385.27;153.57;;;;;;;;;;5104781;28;21011;-93
2022/04/08 11:36:22;;;;;;;384.87;154.93;;;;;;;;;;5104277;28;20449;-93
2022/04/08 11:38:48;;;;;;;383.63;148.63;;;;;;;;;;5094584;28;20498;-94
2022/04/08 11:41:20;;;;;;;378.00;148.53;;;;;;;;;;5096744;28;21246;-95
2022/04/08 11:43:47;;;;;;;386.87;154.93;;;;;;;;;;5087453;28;20466;-95
2022/04/08 11:46:17;;;;;;;385.50;161.67;;;;;;;;;;5088364;28;20446;-96
2022/04/08 11:48:56;;;;;;;374.83;149.37;;;;;;;;;;5086931;28;20449;-95
2022/04/08 11:51:23;;;;;;;386.17;154.67;;;;;;;;;;5086843;28;20493;-95
2022/04/08 11:53:50;;;;;;;381.07;147.67;;;;;;;;;;5109263;28;20461;-96
2022/04/08 11:56:22;;;;;;;374.33;143.00;;;;;;;;;;5099050;28;20457;-94
2022/04/08 11:58:52;;;;;;;372.07;144.00;;;;;;;;;;5103544;28;20445;-94
2022/04/08 12:01:18;;;;;;;367.77;141.73;;;;;;;;;;5103082;28;20440;-95
2022/04/08 12:03:45;;;;;;;372.10;145.57;;;;;;;;;;5087969;28;20457;-92
2022/04/08 12:06:11;;;;;;;380.87;153.67;;;;;;;;;;5080374;28;20433;-93
2022/04/08 12:08:38;;;;;;;381.53;149.03;;;;;;;;;;5095839;28;20478;-91
2022/04/08 12:11:08;;;;;;;381.73;154.70;;;;;;;;;;5098023;28;20827;-91
2022/04/08 12:13:36;;;;;;;386.57;156.53;;;;;;;;;;5097472;28;20463;-91
2022/04/08 12:16:08;;;;;;;387.47;155.23;;;;;;;;;;5095462;28;20449;-93
2022/04/08 12:18:34;;;;;;;381.00;152.93;;;;;;;;;;5096562;28;20522;-92
2022/04/08 12:21:04;;;;;;;383.87;155.60;;;;;;;;;;5097369;28;20460;-91
2022/04/08 12:23:30;;;;;;;392.50;164.47;;;;;;;;;;5099495;28;20456;-95
2022/04/08 12:25:57;;;;;;;399.57;173.30;;;;;;;;;;5099954;28;20441;-92
2022/04/08 12:28:24;;;;;;;388.10;163.33;;;;;;;;;;5101335;28;20441;-92
2022/04/08 12:30:52;;;;;;;381.27;152.80;;;;;;;;;;5103603;28;20484;-92
2022/04/08 12:33:19;;;;;;;387.27;169.23;;;;;;;;;;5102921;28;20444;-91
2022/04/08 12:35:45;;;;;;;390.97;170.43;;;;;;;;;;5103615;28;20444;-92
2022/04/08 12:38:14;;;;;;;397.17;173.03;;;;;;;;;;5102573;28;20506;-92
2022/04/08 12:40:41;;;;;;;391.47;176.97;;;;;;;;;;5103251;28;20460;-93
2022/04/08 12:43:09;;;;;;;403.20;183.37;;;;;;;;;;5101800;28;20509;-92
2022/04/08 12:45:36;;;;;;;395.87;177.23;;;;;;;;;;5100898;28;20448;-91
2022/04/08 12:48:04;;;;;;;397.43;184.07;;;;;;;;;;5101280;28;20468;-91
2022/04/08 12:50:30;;;;;;;403.57;193.47;;;;;;;;;;5102302;28;20440;-91
2022/04/08 12:52:57;;;;;;;396.03;180.93;;;;;;;;;;5092495;28;20489;-91
2022/04/08 12:55:23;;;;;;;397.07;182.23;;;;;;;;;;5082576;28;20446;-91
2022/04/08 12:57:50;;;;;;;400.80;186.47;;;;;;;;;;5089932;28;20962;-92
2022/04/08 13:00:17;;;;;;;392.43;182.70;;;;;;;;;;5102485;28;20845;-92
2022/04/08 13:02:44;;;;;;;385.70;169.90;;;;;;;;;;5094764;28;20507;-92
2022/04/08 13:05:12;;;;;;;393.17;185.17;;;;;;;;;;5080608;28;20536;-92
2022/04/08 13:07:38;;;;;;;386.37;174.57;;;;;;;;;;5085972;28;21014;-93
2022/04/08 13:10:06;;;;;;;387.60;174.53;;;;;;;;;;5099912;28;20453;-91
2022/04/08 13:12:32;;;;;;;379.63;169.63;;;;;;;;;;5101377;28;20485;-92
2022/04/08 13:14:59;;;;;;;385.27;166.73;;;;;;;;;;5102467;28;20506;-93
2022/04/08 13:17:25;;;;;;;390.23;177.77;;;;;;;;;;5102366;28;20440;-92
2022/04/08 13:19:52;;;;;;;387.47;167.27;;;;;;;;;;5102534;28;20467;-91
2022/04/08 13:22:20;;;;;;;386.93;166.03;;;;;;;;;;5102262;28;20520;-92
2022/04/08 13:24:47;;;;;;;376.77;165.60;;;;;;;;;;5102476;28;21070;-90
2022/04/08 13:27:13;;;;;;;380.90;170.30;;;;;;;;;;5102180;28;20889;-90
2022/04/08 13:29:41;;;;;;;377.53;163.57;;;;;;;;;;5102804;28;20449;-90
2022/04/08 13:32:08;;;;;;;381.90;165.73;;;;;;;;;;5102083;28;20488;-91
2022/04/08 13:34:34;;;;;;;390.77;186.47;;;;;;;;;;5102617;28;20480;-91
2022/04/08 13:37:01;;;;;;;389.27;172.83;;;;;;;;;;5102830;28;20517;-92
2022/04/08 13:39:29;;;;;;;392.03;172.03;;;;;;;;;;5100729;28;20474;-92
2022/04/08 13:41:55;;;;;;;377.80;159.90;;;;;;;;;;5101446;28;20466;-90
2022/04/08 13:44:22;;;;;;;376.07;150.90;;;;;;;;;;5100961;28;20444;-92
2022/04/08 13:46:48;;;;;;;378.07;155.80;;;;;;;;;;5097190;28;20462;-92
2022/04/08 13:49:15;;;;;;;382.17;159.00;;;;;;;;;;5105944;28;20467;-93
2022/04/08 13:51:41;;;;;;;385.07;168.03;;;;;;;;;;5105730;28;20552;-92
2022/04/08 13:54:08;;;;;;;387.97;172.37;;;;;;;;;;5106001;28;20449;-90
2022/04/08 13:56:35;;;;;;;383.70;160.77;;;;;;;;;;5095096;28;20461;-92
2022/04/08 13:59:02;;;;;;;388.37;170.27;;;;;;;;;;5085580;28;20461;-92